createdAt,value
2022-08-03T00:01:15.974Z,3.40
2022-08-03T00:03:42.175Z,3.15
2022-08-03T00:06:08.358Z,3.35
2022-08-03T00:08:40.208Z,3.25
2022-08-03T00:11:06.653Z,3.20
2022-08-03T00:13:32.807Z,3.30
2022-08-03T00:15:58.995Z,3.38
2022-08-03T00:18:25.188Z,3.40
2022-08-03T00:20:51.351Z,3.28
2022-08-03T00:23:17.552Z,3.97
2022-08-03T00:25:43.724Z,3.40
2022-08-03T00:28:10.111Z,3.30
2022-08-03T00:30:36.293Z,4.07
2022-08-03T00:33:02.514Z,3.30
2022-08-03T00:35:37.044Z,3.10
2022-08-03T00:38:15.214Z,3.47
2022-08-03T00:40:41.577Z,3.45
2022-08-03T00:43:07.866Z,2.83
2022-08-03T00:45:34.047Z,3.50
2022-08-03T00:48:00.226Z,3.45
2022-08-03T00:50:26.377Z,3.83
2022-08-03T00:52:52.714Z,3.45
2022-08-03T00:55:18.873Z,3.67
2022-08-03T00:57:45.057Z,3.63
2022-08-03T01:00:11.237Z,3.60
2022-08-03T01:02:37.413Z,3.53
2022-08-03T01:05:03.704Z,3.13
2022-08-03T01:07:29.883Z,4.18
2022-08-03T01:09:56.139Z,3.55
2022-08-03T01:12:22.301Z,3.70
2022-08-03T01:14:48.463Z,3.67
2022-08-03T01:17:14.757Z,3.75
2022-08-03T01:19:40.961Z,3.90
2022-08-03T01:22:07.152Z,3.58
2022-08-03T01:24:33.294Z,3.80
2022-08-03T01:26:59.590Z,3.80
2022-08-03T01:29:29.602Z,3.70
2022-08-03T01:32:54.592Z,3.33
2022-08-03T01:34:41.943Z,3.95
2022-08-03T01:37:08.095Z,4.18
2022-08-03T01:39:34.259Z,4.20
2022-08-03T01:42:00.467Z,3.85
2022-08-03T01:44:30.116Z,3.83
2022-08-03T01:46:57.005Z,4.07
2022-08-03T01:49:23.233Z,4.05
2022-08-03T01:52:02.883Z,3.42
2022-08-03T01:54:31.299Z,3.65
2022-08-03T01:56:57.473Z,3.70
2022-08-03T01:59:23.611Z,3.97
2022-08-03T02:02:28.997Z,4.07
2022-08-03T02:04:35.946Z,3.92
2022-08-03T02:07:03.382Z,3.92
2022-08-03T02:09:29.727Z,3.58
2022-08-03T02:11:55.960Z,3.80
2022-08-03T02:14:22.126Z,3.83
2022-08-03T02:16:48.276Z,3.83
2022-08-03T02:19:14.433Z,3.58
2022-08-03T02:21:56.559Z,3.80
2022-08-03T02:24:26.753Z,3.90
2022-08-03T02:26:52.939Z,3.42
2022-08-03T02:29:19.187Z,4.15
2022-08-03T02:31:45.348Z,3.65
2022-08-03T02:34:11.561Z,3.92
2022-08-03T02:36:37.710Z,3.40
2022-08-03T02:39:03.869Z,3.72
2022-08-03T02:41:30.046Z,3.97
2022-08-03T02:44:05.522Z,3.90
2022-08-03T02:46:33.439Z,3.60
2022-08-03T02:48:59.655Z,3.90
2022-08-03T02:51:45.756Z,3.90
2022-08-03T02:54:11.977Z,3.85
2022-08-03T02:56:38.131Z,3.95
2022-08-03T02:59:04.290Z,4.30
2022-08-03T03:01:30.558Z,3.72
2022-08-03T03:03:56.853Z,3.55
2022-08-03T03:06:23.035Z,3.78
2022-08-03T03:08:51.058Z,3.50
2022-08-03T03:11:17.216Z,3.63
2022-08-03T03:13:43.384Z,3.78
2022-08-03T03:16:09.655Z,3.70
2022-08-03T03:18:35.877Z,3.67
2022-08-03T03:21:02.043Z,4.03
2022-08-03T03:23:28.311Z,3.78
2022-08-03T03:25:54.480Z,4.10
2022-08-03T03:28:20.626Z,3.80
2022-08-03T03:30:52.786Z,3.72
2022-08-03T03:33:19.567Z,3.70
2022-08-03T03:35:45.788Z,4.15
2022-08-03T03:38:11.948Z,4.13
2022-08-03T03:40:38.118Z,3.88
2022-08-03T03:43:04.273Z,4.20
2022-08-03T03:45:30.483Z,4.07
2022-08-03T03:47:56.668Z,4.10
2022-08-03T03:50:22.836Z,4.20
2022-08-03T03:52:48.992Z,4.05
2022-08-03T03:55:15.170Z,4.45
2022-08-03T03:57:41.321Z,4.20
2022-08-03T04:00:07.488Z,4.22
2022-08-03T04:02:33.633Z,3.90
2022-08-03T04:04:59.799Z,3.92
2022-08-03T04:07:26.009Z,4.10
2022-08-03T04:09:52.246Z,4.35
2022-08-03T04:12:18.417Z,3.92
2022-08-03T04:14:44.681Z,3.70
2022-08-03T04:17:10.863Z,3.97
2022-08-03T04:19:37.040Z,4.05
2022-08-03T04:22:04.149Z,4.03
2022-08-03T04:24:30.312Z,4.10
2022-08-03T04:26:56.450Z,3.75
2022-08-03T04:29:22.621Z,4.03
2022-08-03T04:31:48.834Z,4.03
2022-08-03T04:34:14.974Z,4.00
2022-08-03T04:36:41.359Z,3.83
2022-08-03T04:39:07.518Z,3.60
2022-08-03T04:42:02.219Z,3.85
2022-08-03T04:44:32.214Z,3.97
2022-08-03T04:46:58.387Z,3.90
2022-08-03T04:49:24.621Z,3.88
2022-08-03T04:52:02.916Z,4.00
2022-08-03T04:54:29.090Z,4.03
2022-08-03T04:56:58.319Z,4.07
2022-08-03T04:59:24.493Z,4.40
2022-08-03T05:01:50.690Z,4.20
2022-08-03T05:04:20.075Z,3.75
2022-08-03T05:06:48.018Z,4.28
2022-08-03T05:09:39.596Z,4.35
2022-08-03T05:12:04.891Z,4.47
2022-08-03T05:14:31.083Z,4.18
2022-08-03T05:16:57.240Z,3.88
2022-08-03T05:19:23.414Z,4.38
2022-08-03T05:21:52.469Z,4.40
2022-08-03T05:24:19.247Z,3.90
2022-08-03T05:26:45.433Z,4.25
2022-08-03T05:29:11.594Z,4.32
2022-08-03T05:31:37.775Z,4.10
2022-08-03T05:34:03.937Z,4.47
2022-08-03T05:36:30.089Z,4.07
2022-08-03T05:39:00.831Z,4.15
2022-08-03T05:41:37.174Z,4.10
2022-08-03T05:44:03.774Z,4.10
2022-08-03T05:46:29.944Z,4.20
2022-08-03T05:48:56.143Z,3.75
2022-08-03T05:51:22.413Z,4.10
2022-08-03T05:53:48.583Z,4.32
2022-08-03T05:56:16.280Z,4.15
2022-08-03T05:58:42.917Z,4.25
2022-08-03T06:01:09.154Z,3.72
2022-08-03T06:03:35.382Z,4.10
2022-08-03T06:06:01.586Z,4.00
2022-08-03T06:08:27.786Z,4.25
2022-08-03T06:10:53.952Z,4.63
2022-08-03T06:13:20.138Z,4.18
2022-08-03T06:15:46.289Z,3.88
2022-08-03T06:18:12.434Z,3.97
2022-08-03T06:20:38.614Z,4.13
2022-08-03T06:23:06.207Z,3.70
2022-08-03T06:25:33.860Z,3.72
2022-08-03T06:28:00.010Z,3.50
2022-08-03T06:30:26.241Z,3.85
2022-08-03T06:32:52.655Z,4.03
2022-08-03T06:35:18.897Z,3.67
2022-08-03T06:37:45.071Z,3.70
2022-08-03T06:40:11.245Z,3.60
2022-08-03T06:42:40.190Z,3.50
2022-08-03T06:45:06.367Z,4.00
2022-08-03T06:47:32.553Z,3.90
2022-08-03T06:50:16.207Z,3.55
2022-08-03T06:52:43.644Z,4.20
2022-08-03T06:55:09.803Z,3.85
2022-08-03T06:57:35.972Z,3.55
2022-08-03T07:00:09.958Z,3.70
2022-08-03T07:02:37.889Z,4.20
2022-08-03T07:05:04.063Z,3.72
2022-08-03T07:07:30.236Z,4.15
2022-08-03T07:09:58.060Z,3.80
2022-08-03T07:12:24.520Z,3.65
2022-08-03T07:14:50.709Z,3.72
2022-08-03T07:17:16.881Z,3.90
2022-08-03T07:19:43.042Z,3.20
2022-08-03T07:22:09.254Z,3.25
2022-08-03T07:24:35.448Z,3.92
2022-08-03T07:27:01.606Z,3.80
2022-08-03T07:29:27.804Z,3.30
2022-08-03T07:31:53.996Z,3.20
2022-08-03T07:34:21.289Z,3.00
2022-08-03T07:36:47.465Z,3.50
2022-08-03T07:39:17.556Z,3.50
2022-08-03T07:41:44.330Z,2.97
2022-08-03T07:44:10.499Z,3.35
2022-08-03T07:46:36.689Z,3.33
2022-08-03T07:49:02.882Z,3.10
2022-08-03T07:51:29.076Z,2.72
2022-08-03T07:53:55.260Z,2.70
2022-08-03T07:56:21.450Z,3.20
2022-08-03T07:58:47.652Z,3.05
2022-08-03T08:01:15.139Z,2.58
2022-08-03T08:03:53.282Z,2.72
2022-08-03T08:06:19.865Z,2.85
2022-08-03T08:08:46.285Z,2.90
2022-08-03T08:11:12.447Z,2.63
2022-08-03T08:13:38.611Z,3.00
2022-08-03T08:16:04.818Z,2.60
2022-08-03T08:18:30.989Z,2.55
2022-08-03T08:20:57.210Z,3.10
2022-08-03T08:23:37.854Z,2.55
2022-08-03T08:26:09.234Z,2.97
2022-08-03T08:28:35.390Z,2.85
2022-08-03T08:31:01.568Z,3.22
2022-08-03T08:33:42.164Z,2.60
2022-08-03T08:36:15.497Z,2.47
2022-08-03T08:38:41.915Z,2.63
2022-08-03T08:41:08.072Z,2.78
2022-08-03T08:43:34.269Z,2.60
2022-08-03T08:46:00.425Z,2.60
2022-08-03T08:48:26.638Z,2.70
2022-08-03T08:50:52.817Z,2.50
2022-08-03T08:53:20.728Z,2.63
2022-08-03T08:55:58.989Z,2.25
2022-08-03T08:58:26.610Z,2.58
2022-08-03T09:00:53.106Z,2.72
2022-08-03T09:03:28.906Z,2.72
2022-08-03T09:05:56.502Z,2.33
2022-08-03T09:08:22.786Z,2.63
2022-08-03T09:10:48.946Z,2.17
2022-08-03T09:13:15.154Z,2.67
2022-08-03T09:15:41.351Z,2.63
2022-08-03T09:18:25.236Z,2.50
2022-08-03T09:20:56.706Z,2.47
2022-08-03T09:24:00.556Z,2.45
2022-08-03T09:26:09.202Z,2.60
2022-08-03T09:29:00.465Z,2.47
2022-08-03T09:31:21.542Z,2.08
2022-08-03T09:33:47.728Z,2.30
2022-08-03T09:36:14.094Z,2.72
2022-08-03T09:38:40.307Z,2.45
2022-08-03T09:41:06.532Z,2.55
2022-08-03T09:43:32.693Z,2.30
2022-08-03T09:45:58.884Z,2.30
2022-08-03T09:48:25.054Z,2.20
2022-08-03T09:50:56.844Z,2.17
2022-08-03T09:53:25.015Z,2.00
2022-08-03T09:56:34.684Z,2.22
2022-08-03T09:58:37.362Z,2.10
2022-08-03T10:01:03.633Z,2.10
2022-08-03T10:03:29.847Z,2.10
2022-08-03T10:05:59.533Z,2.30
2022-08-03T10:08:26.272Z,2.30
2022-08-03T10:10:52.426Z,2.50
2022-08-03T10:13:18.626Z,2.55
2022-08-03T10:16:23.292Z,2.92
2022-08-03T10:18:30.959Z,2.40
2022-08-03T10:20:57.129Z,2.40
2022-08-03T10:23:23.319Z,2.67
2022-08-03T10:25:49.473Z,2.20
2022-08-03T10:28:15.639Z,2.30
2022-08-03T10:30:41.856Z,2.10
2022-08-03T10:33:10.909Z,2.40
2022-08-03T10:35:54.261Z,2.25
2022-08-03T10:38:20.441Z,2.08
2022-08-03T10:40:49.585Z,2.40
2022-08-03T10:43:16.571Z,2.33
2022-08-03T10:45:42.739Z,2.28
2022-08-03T10:48:08.915Z,2.20
2022-08-03T10:50:35.115Z,2.47
2022-08-03T10:53:02.061Z,2.30
2022-08-03T10:55:39.384Z,2.25
2022-08-03T10:58:11.095Z,2.28
2022-08-03T11:00:37.598Z,2.30
2022-08-03T11:03:03.858Z,2.10
2022-08-03T11:05:30.041Z,2.30
2022-08-03T11:07:56.210Z,2.55
2022-08-03T11:10:22.390Z,2.42
2022-08-03T11:12:48.595Z,1.98
2022-08-03T11:15:14.977Z,2.20
2022-08-03T11:17:46.746Z,2.20
2022-08-03T11:20:22.261Z,2.30
2022-08-03T11:22:48.470Z,2.28
2022-08-03T11:25:53.989Z,2.58
2022-08-03T11:28:00.982Z,2.10
2022-08-03T11:30:27.620Z,2.20
2022-08-03T11:32:54.298Z,1.92
2022-08-03T11:35:20.532Z,2.30
2022-08-03T11:38:03.435Z,2.30
2022-08-03T11:40:31.372Z,2.30
2022-08-03T11:42:57.547Z,2.17
2022-08-03T11:45:23.723Z,2.45
2022-08-03T11:47:50.238Z,2.00
2022-08-03T11:50:17.737Z,2.35
2022-08-03T11:52:43.891Z,1.98
2022-08-03T11:55:10.060Z,2.33
2022-08-03T11:59:13.165Z,2.03
2022-08-03T12:00:25.854Z,1.98
2022-08-03T12:02:52.335Z,2.35
2022-08-03T12:05:18.551Z,1.95
2022-08-03T12:08:02.713Z,1.98
2022-08-03T12:10:30.891Z,2.05
2022-08-03T12:12:57.102Z,2.50
2022-08-03T12:15:23.482Z,2.10
2022-08-03T12:17:49.688Z,2.22
2022-08-03T12:20:15.889Z,2.05
2022-08-03T12:22:42.047Z,1.95
2022-08-03T12:25:08.260Z,2.10
2022-08-03T12:27:34.453Z,2.28
2022-08-03T12:30:00.660Z,2.53
2022-08-03T12:32:26.845Z,2.38
2022-08-03T12:34:53.031Z,2.30
2022-08-03T12:37:22.720Z,2.10
2022-08-03T12:40:02.698Z,2.22
2022-08-03T12:42:32.896Z,2.30
2022-08-03T12:44:59.086Z,2.10
2022-08-03T12:47:25.409Z,2.20
2022-08-03T12:49:51.602Z,2.15
2022-08-03T12:52:17.793Z,2.05
2022-08-03T12:54:46.380Z,2.25
2022-08-03T12:57:15.656Z,2.10
2022-08-03T12:59:53.293Z,1.95
2022-08-03T13:02:20.171Z,1.67
2022-08-03T13:04:52.912Z,2.00
2022-08-03T13:07:19.514Z,1.88
2022-08-03T13:09:46.334Z,2.20
2022-08-03T13:12:12.507Z,2.40
2022-08-03T13:14:38.694Z,2.20
2022-08-03T13:17:04.869Z,1.90
2022-08-03T13:19:31.036Z,2.00
2022-08-03T13:22:04.042Z,1.83
2022-08-03T13:24:31.575Z,2.00
2022-08-03T13:26:58.069Z,2.08
2022-08-03T13:29:24.253Z,1.85
2022-08-03T13:31:51.258Z,2.00
2022-08-03T13:34:20.973Z,2.40
2022-08-03T13:39:57.707Z,1.90
2022-08-03T13:42:21.949Z,1.92
2022-08-03T13:44:48.207Z,1.90
2022-08-03T13:47:14.374Z,1.83
2022-08-03T13:49:40.561Z,1.90
2022-08-03T13:52:06.739Z,1.98
2022-08-03T13:54:32.943Z,1.88
2022-08-03T13:58:01.325Z,2.17
2022-08-03T13:59:45.306Z,2.10
2022-08-03T14:02:11.550Z,1.83
2022-08-03T14:04:37.738Z,2.20
2022-08-03T14:07:03.941Z,2.20
2022-08-03T14:09:30.077Z,1.95
2022-08-03T14:12:08.379Z,2.10
2022-08-03T14:14:35.041Z,1.95
2022-08-03T14:17:01.247Z,2.08
2022-08-03T14:19:28.620Z,2.10
2022-08-03T14:22:06.141Z,2.20
2022-08-03T14:24:32.900Z,2.20
2022-08-03T14:27:08.678Z,2.30
2022-08-03T14:29:36.244Z,2.22
2022-08-03T14:32:09.686Z,2.10
2022-08-03T14:34:38.552Z,2.00
2022-08-03T14:37:04.784Z,2.30
2022-08-03T14:39:58.174Z,2.13
2022-08-03T14:42:17.134Z,2.00
2022-08-03T14:44:43.323Z,2.60
2022-08-03T14:47:09.591Z,2.13
2022-08-03T14:50:37.373Z,2.10
2022-08-03T14:52:21.947Z,2.25
2022-08-03T14:54:48.191Z,2.38
2022-08-03T14:57:14.387Z,2.15
2022-08-03T14:59:54.096Z,2.20
2022-08-03T15:02:23.997Z,2.00
2022-08-03T15:04:50.459Z,2.00
2022-08-03T15:07:16.637Z,2.10
2022-08-03T15:09:42.838Z,2.25
2022-08-03T15:12:08.999Z,2.08
2022-08-03T15:14:35.159Z,1.95
2022-08-03T15:17:04.102Z,1.88
2022-08-03T15:20:05.565Z,1.98
2022-08-03T15:22:16.479Z,1.98
2022-08-03T15:24:46.744Z,2.00
2022-08-03T15:27:12.933Z,2.28
2022-08-03T15:30:07.777Z,2.00
2022-08-03T15:32:25.305Z,1.90
2022-08-03T15:34:53.271Z,2.03
2022-08-03T15:37:19.467Z,2.00
2022-08-03T15:39:59.307Z,1.90
2022-08-03T15:42:26.781Z,2.10
2022-08-03T15:44:53.611Z,1.80
2022-08-03T15:47:21.082Z,1.80
2022-08-03T15:49:47.516Z,2.10
2022-08-03T15:52:16.211Z,2.08
2022-08-03T15:54:42.407Z,2.13
2022-08-03T15:57:08.638Z,2.10
2022-08-03T15:59:35.784Z,1.98
2022-08-03T16:02:02.029Z,2.20
2022-08-03T16:04:28.401Z,1.88
2022-08-03T16:06:54.571Z,2.00
2022-08-03T16:09:24.358Z,1.92
2022-08-03T16:12:06.901Z,1.83
2022-08-03T16:14:53.453Z,2.00
2022-08-03T16:17:20.471Z,1.90
2022-08-03T16:19:46.922Z,2.08
2022-08-03T16:22:14.705Z,2.03
2022-08-03T16:24:43.023Z,2.05
2022-08-03T16:27:17.515Z,1.90
2022-08-03T16:29:55.444Z,2.05
2022-08-03T16:32:21.602Z,2.00
2022-08-03T16:34:47.771Z,2.40
2022-08-03T16:37:36.914Z,2.40
2022-08-03T16:40:00.176Z,2.50
2022-08-03T16:42:26.381Z,2.13
2022-08-03T16:44:52.548Z,2.20
2022-08-03T16:47:22.315Z,1.80
2022-08-03T16:52:21.850Z,2.17
2022-08-03T16:54:52.698Z,2.10
2022-08-03T16:57:58.255Z,1.85
2022-08-03T17:00:08.140Z,1.75
2022-08-03T17:02:36.696Z,1.80
2022-08-03T17:05:03.843Z,1.75
2022-08-03T17:07:30.415Z,1.40
2022-08-03T17:09:56.694Z,1.52
2022-08-03T17:12:26.015Z,1.80
2022-08-03T17:14:53.519Z,1.77
2022-08-03T17:17:19.923Z,1.65
2022-08-03T17:19:47.459Z,2.00
2022-08-03T17:22:15.943Z,2.03
2022-08-03T17:24:42.428Z,2.05
2022-08-03T17:28:41.353Z,2.20
2022-08-03T17:29:57.273Z,1.83
2022-08-03T17:32:42.387Z,2.00
2022-08-03T17:35:11.916Z,2.13
2022-08-03T17:37:58.717Z,2.10
2022-08-03T17:40:24.566Z,1.88
2022-08-03T17:42:54.421Z,1.95
2022-08-03T17:45:20.678Z,1.83
2022-08-03T17:47:57.559Z,2.22
2022-08-03T17:50:27.981Z,2.00
2022-08-03T17:52:54.999Z,1.90
2022-08-03T17:55:56.103Z,1.80
2022-08-03T17:58:07.374Z,2.22
2022-08-03T18:00:33.643Z,2.17
2022-08-03T18:03:03.317Z,2.10
2022-08-03T18:06:10.493Z,2.15
2022-08-03T18:08:16.605Z,1.80
2022-08-03T18:13:31.874Z,2.28
2022-08-03T18:18:50.671Z,1.90
2022-08-03T18:21:17.566Z,2.25
2022-08-03T18:23:43.804Z,2.03
2022-08-03T18:26:10.744Z,2.50
2022-08-03T18:28:38.709Z,2.13
2022-08-03T18:31:06.084Z,2.20
2022-08-03T18:34:20.035Z,2.10
2022-08-03T18:36:22.060Z,2.05
2022-08-03T18:38:56.919Z,2.00
2022-08-03T18:41:33.178Z,2.08
2022-08-03T18:44:08.590Z,2.30
2022-08-03T18:46:35.974Z,2.30
2022-08-03T18:49:11.310Z,2.50
2022-08-03T18:54:57.807Z,2.20
2022-08-03T18:56:59.477Z,1.95
2022-08-03T18:59:30.155Z,2.75
2022-08-03T19:01:56.917Z,2.10
2022-08-03T19:04:25.416Z,1.92
2022-08-03T19:06:52.678Z,1.95
2022-08-03T19:09:20.187Z,2.70
2022-08-03T19:12:14.122Z,2.00
2022-08-03T19:14:32.535Z,2.10
2022-08-03T19:16:58.772Z,2.47
2022-08-03T19:19:25.015Z,2.25
2022-08-03T19:21:51.246Z,2.42
2022-08-03T19:24:17.407Z,2.35
2022-08-03T19:26:48.541Z,2.45
2022-08-03T19:29:18.431Z,2.67
2022-08-03T19:31:58.914Z,2.85
2022-08-03T19:37:22.020Z,3.95
2022-08-03T19:39:56.628Z,3.03
2022-08-03T19:42:26.844Z,2.47
2022-08-03T19:45:17.805Z,2.50
2022-08-03T19:47:44.045Z,2.50
2022-08-03T19:50:14.333Z,2.92
2022-08-03T19:55:37.741Z,2.67
2022-08-03T19:58:08.686Z,2.60
2022-08-03T20:17:03.224Z,2.50
2022-08-03T20:19:36.517Z,2.30
2022-08-03T20:22:02.816Z,2.50
2022-08-03T20:27:15.240Z,2.42
2022-08-03T20:32:40.770Z,2.80
2022-08-03T20:35:11.808Z,2.83
2022-08-03T20:37:38.160Z,2.70
2022-08-03T20:40:04.405Z,2.63
2022-08-03T20:42:30.684Z,2.60
2022-08-03T20:45:06.132Z,2.53
2022-08-03T20:47:50.329Z,2.78
2022-08-03T20:50:19.779Z,2.63
2022-08-03T20:52:57.177Z,2.60
2022-08-03T20:55:47.667Z,2.90
2022-08-03T20:58:11.763Z,3.80
2022-08-03T21:00:42.914Z,2.92
2022-08-03T21:03:09.478Z,2.90
2022-08-03T21:05:48.364Z,2.85
2022-08-03T21:08:18.219Z,3.50
2022-08-03T21:10:44.461Z,2.65
2022-08-03T21:13:04.224Z,2.13
2022-08-03T21:16:11.389Z,3.10
2022-08-03T21:18:31.924Z,3.10
2022-08-03T21:20:58.185Z,3.13
2022-08-03T21:23:39.834Z,3.20
2022-08-03T21:26:11.172Z,2.92
2022-08-03T21:28:39.879Z,3.10
2022-08-03T21:31:06.133Z,3.25
2022-08-03T21:33:32.339Z,2.88
2022-08-03T21:35:59.749Z,3.00
2022-08-03T21:38:30.253Z,2.90
2022-08-03T21:40:57.983Z,3.58
2022-08-03T21:43:24.214Z,2.60
2022-08-03T21:45:54.820Z,2.85
2022-08-03T21:48:23.529Z,3.10
2022-08-03T21:50:50.683Z,3.08
2022-08-03T21:53:17.035Z,3.30
2022-08-03T21:55:45.373Z,3.20
2022-08-03T21:58:11.616Z,3.38
2022-08-03T22:00:37.847Z,3.38
2022-08-03T22:03:11.991Z,3.58
2022-08-03T22:05:44.286Z,3.22
2022-08-03T22:08:10.549Z,3.33
2022-08-03T22:10:36.915Z,3.20
2022-08-03T22:13:03.100Z,3.67
2022-08-03T22:15:29.293Z,3.83
2022-08-03T22:17:57.221Z,3.90
2022-08-03T22:20:23.689Z,3.92
2022-08-03T22:22:55.261Z,4.10
2022-08-03T22:25:21.843Z,3.75
2022-08-03T22:27:48.220Z,3.85
2022-08-03T22:30:14.406Z,3.78
2022-08-03T22:32:40.573Z,3.40
2022-08-03T22:35:06.743Z,3.60
2022-08-03T22:37:35.814Z,3.15
2022-08-03T22:40:01.972Z,3.78
2022-08-03T22:42:28.190Z,3.40
2022-08-03T22:44:54.370Z,3.40
2022-08-03T22:47:22.861Z,3.78
2022-08-03T22:49:49.361Z,3.72
2022-08-03T22:52:35.538Z,3.55
2022-08-03T22:55:01.746Z,3.55
2022-08-03T22:57:27.948Z,3.22
2022-08-03T22:59:54.135Z,3.30
2022-08-03T23:02:21.759Z,3.80
2022-08-03T23:04:48.033Z,3.47
2022-08-03T23:07:14.219Z,3.10
2022-08-03T23:09:40.412Z,3.55
2022-08-03T23:12:06.584Z,4.03
2022-08-03T23:14:32.748Z,3.53
2022-08-03T23:16:58.931Z,3.25
2022-08-03T23:19:26.105Z,3.70
2022-08-03T23:22:00.611Z,3.90
2022-08-03T23:24:30.347Z,3.30
2022-08-03T23:26:56.664Z,3.20
2022-08-03T23:29:23.041Z,3.28
2022-08-03T23:31:49.227Z,3.42
2022-08-03T23:34:16.762Z,3.50
2022-08-03T23:36:43.101Z,3.63
2022-08-03T23:39:09.424Z,3.13
2022-08-03T23:41:35.613Z,3.30
2022-08-03T23:44:01.870Z,3.55
2022-08-03T23:46:29.880Z,3.80
2022-08-03T23:48:56.485Z,3.22
2022-08-03T23:51:22.917Z,3.35
2022-08-03T23:53:49.075Z,3.25
2022-08-03T23:56:15.457Z,2.95
2022-08-03T23:58:41.613Z,3.45
